sensor_id;sensor_type;location;lat;lon;timestamp;P1;durP1;ratioP1;P2;durP2;ratioP2
8466;SDS011;4270;48.148;11.648;2023-11-21T00:00:30;9.63;;;2.70;;
8466;SDS011;4270;48.148;11.648;2023-11-21T00:02:55;8.20;;;2.50;;
8466;SDS011;4270;48.148;11.648;2023-11-21T00:05:21;14.17;;;2.40;;
8466;SDS011;4270;48.148;11.648;2023-11-21T00:07:48;4.17;;;1.50;;
8466;SDS011;4270;48.148;11.648;2023-11-21T00:10:13;6.10;;;1.73;;
8466;SDS011;4270;48.148;11.648;2023-11-21T00:12:42;6.23;;;1.87;;
8466;SDS011;4270;48.148;11.648;2023-11-21T00:15:07;6.57;;;2.40;;
8466;SDS011;4270;48.148;11.648;2023-11-21T00:17:36;7.10;;;1.90;;
8466;SDS011;4270;48.148;11.648;2023-11-21T00:20:01;6.67;;;1.87;;
8466;SDS011;4270;48.148;11.648;2023-11-21T00:22:29;4.17;;;1.90;;
8466;SDS011;4270;48.148;11.648;2023-11-21T00:24:54;4.80;;;1.70;;
8466;SDS011;4270;48.148;11.648;2023-11-21T00:27:19;4.43;;;1.93;;
8466;SDS011;4270;48.148;11.648;2023-11-21T00:29:45;7.47;;;2.07;;
8466;SDS011;4270;48.148;11.648;2023-11-21T00:32:10;3.93;;;1.63;;
8466;SDS011;4270;48.148;11.648;2023-11-21T00:34:36;5.40;;;1.60;;
8466;SDS011;4270;48.148;11.648;2023-11-21T00:37:01;5.93;;;1.87;;
8466;SDS011;4270;48.148;11.648;2023-11-21T00:39:27;3.83;;;1.20;;
8466;SDS011;4270;48.148;11.648;2023-11-21T00:41:53;4.20;;;1.40;;
8466;SDS011;4270;48.148;11.648;2023-11-21T00:44:18;5.30;;;1.40;;
8466;SDS011;4270;48.148;11.648;2023-11-21T00:46:43;2.87;;;1.33;;
8466;SDS011;4270;48.148;11.648;2023-11-21T00:49:08;5.73;;;1.20;;
8466;SDS011;4270;48.148;11.648;2023-11-21T00:51:34;5.60;;;1.10;;
8466;SDS011;4270;48.148;11.648;2023-11-21T00:53:59;6.67;;;1.33;;
8466;SDS011;4270;48.148;11.648;2023-11-21T00:56:24;3.70;;;1.27;;
8466;SDS011;4270;48.148;11.648;2023-11-21T00:58:49;4.00;;;1.50;;
8466;SDS011;4270;48.148;11.648;2023-11-21T01:01:17;5.80;;;0.80;;
8466;SDS011;4270;48.148;11.648;2023-11-21T01:03:42;3.63;;;1.17;;
8466;SDS011;4270;48.148;11.648;2023-11-21T01:06:08;3.07;;;1.20;;
8466;SDS011;4270;48.148;11.648;2023-11-21T01:08:34;4.13;;;1.20;;
8466;SDS011;4270;48.148;11.648;2023-11-21T01:10:59;3.97;;;1.00;;
8466;SDS011;4270;48.148;11.648;2023-11-21T01:13:24;2.33;;;1.10;;
8466;SDS011;4270;48.148;11.648;2023-11-21T01:15:54;3.00;;;1.20;;
8466;SDS011;4270;48.148;11.648;2023-11-21T01:18:20;8.30;;;1.27;;
8466;SDS011;4270;48.148;11.648;2023-11-21T01:20:45;4.10;;;1.30;;
8466;SDS011;4270;48.148;11.648;2023-11-21T01:23:12;3.40;;;1.03;;
8466;SDS011;4270;48.148;11.648;2023-11-21T01:25:37;3.20;;;1.40;;
8466;SDS011;4270;48.148;11.648;2023-11-21T01:28:02;2.63;;;1.30;;
8466;SDS011;4270;48.148;11.648;2023-11-21T01:30:27;6.10;;;1.10;;
8466;SDS011;4270;48.148;11.648;2023-11-21T01:32:53;3.17;;;1.23;;
8466;SDS011;4270;48.148;11.648;2023-11-21T01:35:18;2.17;;;1.27;;
8466;SDS011;4270;48.148;11.648;2023-11-21T01:37:44;6.67;;;1.50;;
8466;SDS011;4270;48.148;11.648;2023-11-21T01:40:09;2.30;;;1.00;;
8466;SDS011;4270;48.148;11.648;2023-11-21T01:42:38;4.90;;;1.30;;
8466;SDS011;4270;48.148;11.648;2023-11-21T01:45:03;3.83;;;1.27;;
8466;SDS011;4270;48.148;11.648;2023-11-21T01:47:30;3.23;;;1.40;;
8466;SDS011;4270;48.148;11.648;2023-11-21T01:49:56;4.73;;;1.83;;
8466;SDS011;4270;48.148;11.648;2023-11-21T01:52:21;2.90;;;1.20;;
8466;SDS011;4270;48.148;11.648;2023-11-21T01:54:46;5.27;;;1.30;;
8466;SDS011;4270;48.148;11.648;2023-11-21T01:57:12;4.70;;;1.40;;
8466;SDS011;4270;48.148;11.648;2023-11-21T01:59:38;4.20;;;1.10;;
8466;SDS011;4270;48.148;11.648;2023-11-21T02:02:07;5.87;;;1.87;;
8466;SDS011;4270;48.148;11.648;2023-11-21T02:04:32;6.70;;;1.50;;
8466;SDS011;4270;48.148;11.648;2023-11-21T02:06:57;6.67;;;1.93;;
8466;SDS011;4270;48.148;11.648;2023-11-21T02:09:26;3.37;;;1.70;;
8466;SDS011;4270;48.148;11.648;2023-11-21T02:11:52;4.47;;;1.93;;
8466;SDS011;4270;48.148;11.648;2023-11-21T02:14:19;6.20;;;1.30;;
8466;SDS011;4270;48.148;11.648;2023-11-21T02:16:45;5.53;;;1.40;;
8466;SDS011;4270;48.148;11.648;2023-11-21T02:19:12;6.23;;;1.20;;
8466;SDS011;4270;48.148;11.648;2023-11-21T02:21:43;8.93;;;1.77;;
8466;SDS011;4270;48.148;11.648;2023-11-21T02:24:10;7.07;;;1.50;;
8466;SDS011;4270;48.148;11.648;2023-11-21T02:26:35;3.43;;;1.23;;
8466;SDS011;4270;48.148;11.648;2023-11-21T02:29:00;3.10;;;1.63;;
8466;SDS011;4270;48.148;11.648;2023-11-21T02:31:26;3.63;;;1.60;;
8466;SDS011;4270;48.148;11.648;2023-11-21T02:33:52;3.97;;;1.30;;
8466;SDS011;4270;48.148;11.648;2023-11-21T02:36:17;3.70;;;1.30;;
8466;SDS011;4270;48.148;11.648;2023-11-21T02:38:43;7.40;;;2.10;;
8466;SDS011;4270;48.148;11.648;2023-11-21T02:41:08;4.57;;;1.50;;
8466;SDS011;4270;48.148;11.648;2023-11-21T02:43:33;3.53;;;1.10;;
8466;SDS011;4270;48.148;11.648;2023-11-21T02:45:59;6.03;;;1.30;;
8466;SDS011;4270;48.148;11.648;2023-11-21T02:48:24;4.40;;;1.80;;
8466;SDS011;4270;48.148;11.648;2023-11-21T02:50:50;5.17;;;1.60;;
8466;SDS011;4270;48.148;11.648;2023-11-21T02:53:15;2.43;;;1.07;;
8466;SDS011;4270;48.148;11.648;2023-11-21T02:55:41;4.03;;;1.17;;
8466;SDS011;4270;48.148;11.648;2023-11-21T02:58:06;5.80;;;1.70;;
8466;SDS011;4270;48.148;11.648;2023-11-21T03:00:32;2.57;;;1.10;;
8466;SDS011;4270;48.148;11.648;2023-11-21T03:02:57;2.93;;;1.03;;
8466;SDS011;4270;48.148;11.648;2023-11-21T03:05:22;2.70;;;0.90;;
8466;SDS011;4270;48.148;11.648;2023-11-21T03:07:48;2.87;;;0.90;;
8466;SDS011;4270;48.148;11.648;2023-11-21T03:10:13;3.80;;;1.40;;
8466;SDS011;4270;48.148;11.648;2023-11-21T03:12:39;2.20;;;1.10;;
8466;SDS011;4270;48.148;11.648;2023-11-21T03:15:05;5.13;;;1.30;;
8466;SDS011;4270;48.148;11.648;2023-11-21T03:17:30;2.47;;;1.20;;
8466;SDS011;4270;48.148;11.648;2023-11-21T03:19:56;5.70;;;1.60;;
8466;SDS011;4270;48.148;11.648;2023-11-21T03:22:22;2.97;;;1.00;;
8466;SDS011;4270;48.148;11.648;2023-11-21T03:24:47;2.70;;;1.23;;
8466;SDS011;4270;48.148;11.648;2023-11-21T03:27:12;5.00;;;1.73;;
8466;SDS011;4270;48.148;11.648;2023-11-21T03:29:38;8.00;;;1.73;;
8466;SDS011;4270;48.148;11.648;2023-11-21T03:32:04;5.07;;;1.13;;
8466;SDS011;4270;48.148;11.648;2023-11-21T03:34:29;3.63;;;1.47;;
8466;SDS011;4270;48.148;11.648;2023-11-21T03:36:55;1.60;;;0.90;;
8466;SDS011;4270;48.148;11.648;2023-11-21T03:39:20;5.53;;;1.27;;
8466;SDS011;4270;48.148;11.648;2023-11-21T03:41:46;2.10;;;0.97;;
8466;SDS011;4270;48.148;11.648;2023-11-21T03:44:11;4.10;;;1.27;;
8466;SDS011;4270;48.148;11.648;2023-11-21T03:46:36;2.23;;;1.27;;
8466;SDS011;4270;48.148;11.648;2023-11-21T03:49:01;7.83;;;1.53;;
8466;SDS011;4270;48.148;11.648;2023-11-21T03:51:26;5.47;;;1.27;;
8466;SDS011;4270;48.148;11.648;2023-11-21T03:53:52;4.73;;;1.40;;
8466;SDS011;4270;48.148;11.648;2023-11-21T03:56:17;2.50;;;0.90;;
8466;SDS011;4270;48.148;11.648;2023-11-21T03:58:43;6.10;;;1.20;;
8466;SDS011;4270;48.148;11.648;2023-11-21T04:01:08;3.07;;;0.97;;
8466;SDS011;4270;48.148;11.648;2023-11-21T04:03:33;3.10;;;1.37;;
8466;SDS011;4270;48.148;11.648;2023-11-21T04:05:58;4.33;;;1.20;;
8466;SDS011;4270;48.148;11.648;2023-11-21T04:08:25;4.70;;;1.70;;
8466;SDS011;4270;48.148;11.648;2023-11-21T04:10:51;3.47;;;1.20;;
8466;SDS011;4270;48.148;11.648;2023-11-21T04:13:18;4.27;;;1.00;;
8466;SDS011;4270;48.148;11.648;2023-11-21T04:15:43;4.47;;;1.67;;
8466;SDS011;4270;48.148;11.648;2023-11-21T04:18:09;2.30;;;1.00;;
8466;SDS011;4270;48.148;11.648;2023-11-21T04:20:34;2.63;;;0.90;;
8466;SDS011;4270;48.148;11.648;2023-11-21T04:22:59;4.33;;;1.10;;
8466;SDS011;4270;48.148;11.648;2023-11-21T04:25:24;5.17;;;1.00;;
8466;SDS011;4270;48.148;11.648;2023-11-21T04:27:50;2.37;;;0.90;;
8466;SDS011;4270;48.148;11.648;2023-11-21T04:30:15;3.97;;;1.20;;
8466;SDS011;4270;48.148;11.648;2023-11-21T04:32:40;2.67;;;0.80;;
8466;SDS011;4270;48.148;11.648;2023-11-21T04:35:06;3.33;;;1.17;;
8466;SDS011;4270;48.148;11.648;2023-11-21T04:37:33;4.20;;;0.90;;
8466;SDS011;4270;48.148;11.648;2023-11-21T04:39:58;3.30;;;1.07;;
8466;SDS011;4270;48.148;11.648;2023-11-21T04:42:24;2.73;;;1.30;;
8466;SDS011;4270;48.148;11.648;2023-11-21T04:44:49;3.00;;;1.10;;
8466;SDS011;4270;48.148;11.648;2023-11-21T04:47:14;3.90;;;0.93;;
8466;SDS011;4270;48.148;11.648;2023-11-21T04:49:41;2.20;;;0.87;;
8466;SDS011;4270;48.148;11.648;2023-11-21T04:52:07;2.60;;;1.30;;
8466;SDS011;4270;48.148;11.648;2023-11-21T04:54:34;1.83;;;1.00;;
8466;SDS011;4270;48.148;11.648;2023-11-21T04:56:59;5.47;;;1.47;;
8466;SDS011;4270;48.148;11.648;2023-11-21T04:59:25;3.07;;;1.13;;
8466;SDS011;4270;48.148;11.648;2023-11-21T05:01:52;4.60;;;0.80;;
8466;SDS011;4270;48.148;11.648;2023-11-21T05:04:17;1.60;;;0.80;;
8466;SDS011;4270;48.148;11.648;2023-11-21T05:06:42;1.87;;;0.90;;
8466;SDS011;4270;48.148;11.648;2023-11-21T05:09:09;2.07;;;1.80;;
8466;SDS011;4270;48.148;11.648;2023-11-21T05:11:37;2.43;;;0.90;;
8466;SDS011;4270;48.148;11.648;2023-11-21T05:14:02;1.93;;;1.00;;
8466;SDS011;4270;48.148;11.648;2023-11-21T05:16:29;2.33;;;1.13;;
8466;SDS011;4270;48.148;11.648;2023-11-21T05:18:54;7.20;;;1.00;;
8466;SDS011;4270;48.148;11.648;2023-11-21T05:21:25;3.80;;;1.33;;
8466;SDS011;4270;48.148;11.648;2023-11-21T05:23:50;4.23;;;1.00;;
8466;SDS011;4270;48.148;11.648;2023-11-21T05:26:15;1.43;;;0.93;;
8466;SDS011;4270;48.148;11.648;2023-11-21T05:28:40;2.60;;;1.30;;
8466;SDS011;4270;48.148;11.648;2023-11-21T05:31:06;3.43;;;1.17;;
8466;SDS011;4270;48.148;11.648;2023-11-21T05:33:31;4.97;;;0.90;;
8466;SDS011;4270;48.148;11.648;2023-11-21T05:35:58;2.33;;;1.10;;
8466;SDS011;4270;48.148;11.648;2023-11-21T05:38:23;2.47;;;0.90;;
8466;SDS011;4270;48.148;11.648;2023-11-21T05:40:49;3.67;;;1.07;;
8466;SDS011;4270;48.148;11.648;2023-11-21T05:43:14;2.90;;;1.27;;
8466;SDS011;4270;48.148;11.648;2023-11-21T05:45:40;2.77;;;0.93;;
8466;SDS011;4270;48.148;11.648;2023-11-21T05:48:05;4.10;;;1.00;;
8466;SDS011;4270;48.148;11.648;2023-11-21T05:50:31;3.13;;;0.93;;
8466;SDS011;4270;48.148;11.648;2023-11-21T05:52:57;7.10;;;1.73;;
8466;SDS011;4270;48.148;11.648;2023-11-21T05:55:24;1.77;;;0.87;;
8466;SDS011;4270;48.148;11.648;2023-11-21T05:57:50;4.17;;;1.30;;
8466;SDS011;4270;48.148;11.648;2023-11-21T06:00:16;1.77;;;1.00;;
8466;SDS011;4270;48.148;11.648;2023-11-21T06:02:47;2.70;;;1.00;;
8466;SDS011;4270;48.148;11.648;2023-11-21T06:05:15;1.60;;;1.33;;
8466;SDS011;4270;48.148;11.648;2023-11-21T06:07:40;1.83;;;1.00;;
8466;SDS011;4270;48.148;11.648;2023-11-21T06:10:06;4.23;;;1.00;;
8466;SDS011;4270;48.148;11.648;2023-11-21T06:12:34;2.77;;;1.03;;
8466;SDS011;4270;48.148;11.648;2023-11-21T06:15:01;5.23;;;1.10;;
8466;SDS011;4270;48.148;11.648;2023-11-21T06:17:29;3.40;;;1.17;;
8466;SDS011;4270;48.148;11.648;2023-11-21T06:19:54;2.43;;;1.37;;
8466;SDS011;4270;48.148;11.648;2023-11-21T06:22:20;2.60;;;1.10;;
8466;SDS011;4270;48.148;11.648;2023-11-21T06:24:45;3.17;;;1.27;;
8466;SDS011;4270;48.148;11.648;2023-11-21T06:27:10;3.07;;;1.47;;
8466;SDS011;4270;48.148;11.648;2023-11-21T06:29:36;1.80;;;1.10;;
8466;SDS011;4270;48.148;11.648;2023-11-21T06:32:02;1.63;;;1.07;;
8466;SDS011;4270;48.148;11.648;2023-11-21T06:34:30;6.90;;;1.10;;
8466;SDS011;4270;48.148;11.648;2023-11-21T06:36:55;4.20;;;1.23;;
8466;SDS011;4270;48.148;11.648;2023-11-21T06:39:21;4.10;;;1.10;;
8466;SDS011;4270;48.148;11.648;2023-11-21T06:41:48;2.50;;;1.17;;
8466;SDS011;4270;48.148;11.648;2023-11-21T06:44:13;3.03;;;1.10;;
8466;SDS011;4270;48.148;11.648;2023-11-21T06:46:38;3.27;;;1.33;;
8466;SDS011;4270;48.148;11.648;2023-11-21T06:49:07;4.30;;;1.10;;
8466;SDS011;4270;48.148;11.648;2023-11-21T06:51:32;2.33;;;1.00;;
8466;SDS011;4270;48.148;11.648;2023-11-21T06:53:57;1.50;;;0.80;;
8466;SDS011;4270;48.148;11.648;2023-11-21T06:56:23;8.00;;;1.17;;
8466;SDS011;4270;48.148;11.648;2023-11-21T06:58:48;3.00;;;0.83;;
8466;SDS011;4270;48.148;11.648;2023-11-21T07:01:14;2.90;;;1.07;;
8466;SDS011;4270;48.148;11.648;2023-11-21T07:03:40;2.90;;;1.00;;
8466;SDS011;4270;48.148;11.648;2023-11-21T07:06:06;3.10;;;1.07;;
8466;SDS011;4270;48.148;11.648;2023-11-21T07:08:32;1.60;;;0.90;;
8466;SDS011;4270;48.148;11.648;2023-11-21T07:10:57;3.27;;;1.20;;
8466;SDS011;4270;48.148;11.648;2023-11-21T07:13:22;1.90;;;0.90;;
8466;SDS011;4270;48.148;11.648;2023-11-21T07:15:48;1.77;;;1.00;;
8466;SDS011;4270;48.148;11.648;2023-11-21T07:18:13;2.03;;;0.97;;
8466;SDS011;4270;48.148;11.648;2023-11-21T07:20:39;2.60;;;0.90;;
8466;SDS011;4270;48.148;11.648;2023-11-21T07:23:04;3.20;;;1.13;;
8466;SDS011;4270;48.148;11.648;2023-11-21T07:25:30;1.70;;;0.87;;
8466;SDS011;4270;48.148;11.648;2023-11-21T07:27:56;2.07;;;0.97;;
8466;SDS011;4270;48.148;11.648;2023-11-21T07:30:22;2.73;;;0.90;;
8466;SDS011;4270;48.148;11.648;2023-11-21T07:32:47;3.10;;;1.20;;
8466;SDS011;4270;48.148;11.648;2023-11-21T07:35:13;2.73;;;1.13;;
8466;SDS011;4270;48.148;11.648;2023-11-21T07:37:38;1.37;;;0.93;;
8466;SDS011;4270;48.148;11.648;2023-11-21T07:40:05;4.00;;;1.27;;
8466;SDS011;4270;48.148;11.648;2023-11-21T07:42:34;1.50;;;0.77;;
8466;SDS011;4270;48.148;11.648;2023-11-21T07:44:59;1.50;;;0.80;;
8466;SDS011;4270;48.148;11.648;2023-11-21T07:47:24;1.93;;;0.77;;
8466;SDS011;4270;48.148;11.648;2023-11-21T07:49:52;1.70;;;0.87;;
8466;SDS011;4270;48.148;11.648;2023-11-21T07:52:17;1.93;;;0.93;;
8466;SDS011;4270;48.148;11.648;2023-11-21T07:54:42;3.10;;;1.37;;
8466;SDS011;4270;48.148;11.648;2023-11-21T07:57:08;3.40;;;1.10;;
8466;SDS011;4270;48.148;11.648;2023-11-21T07:59:33;4.63;;;1.13;;
8466;SDS011;4270;48.148;11.648;2023-11-21T08:01:58;3.03;;;1.00;;
8466;SDS011;4270;48.148;11.648;2023-11-21T08:04:24;2.90;;;1.13;;
8466;SDS011;4270;48.148;11.648;2023-11-21T08:06:49;1.40;;;0.83;;
8466;SDS011;4270;48.148;11.648;2023-11-21T08:09:15;2.70;;;1.00;;
8466;SDS011;4270;48.148;11.648;2023-11-21T08:11:42;2.17;;;0.90;;
8466;SDS011;4270;48.148;11.648;2023-11-21T08:14:07;1.43;;;0.73;;
8466;SDS011;4270;48.148;11.648;2023-11-21T08:16:32;2.17;;;0.93;;
8466;SDS011;4270;48.148;11.648;2023-11-21T08:18:58;3.40;;;0.80;;
8466;SDS011;4270;48.148;11.648;2023-11-21T08:21:23;2.80;;;0.70;;
8466;SDS011;4270;48.148;11.648;2023-11-21T08:23:54;3.53;;;0.90;;
8466;SDS011;4270;48.148;11.648;2023-11-21T08:26:20;2.83;;;0.97;;
8466;SDS011;4270;48.148;11.648;2023-11-21T08:28:45;2.13;;;1.10;;
8466;SDS011;4270;48.148;11.648;2023-11-21T08:31:12;1.97;;;0.70;;
8466;SDS011;4270;48.148;11.648;2023-11-21T08:33:37;2.40;;;0.70;;
8466;SDS011;4270;48.148;11.648;2023-11-21T08:36:06;3.30;;;1.03;;
8466;SDS011;4270;48.148;11.648;2023-11-21T08:38:31;2.23;;;1.03;;
8466;SDS011;4270;48.148;11.648;2023-11-21T08:40:57;4.10;;;1.17;;
8466;SDS011;4270;48.148;11.648;2023-11-21T08:43:22;3.20;;;1.00;;
8466;SDS011;4270;48.148;11.648;2023-11-21T08:45:47;1.40;;;0.77;;
8466;SDS011;4270;48.148;11.648;2023-11-21T08:48:13;3.20;;;1.03;;
8466;SDS011;4270;48.148;11.648;2023-11-21T08:50:38;2.50;;;1.17;;
8466;SDS011;4270;48.148;11.648;2023-11-21T08:53:03;4.07;;;1.07;;
8466;SDS011;4270;48.148;11.648;2023-11-21T08:55:28;2.00;;;1.17;;
8466;SDS011;4270;48.148;11.648;2023-11-21T08:57:54;2.73;;;1.30;;
8466;SDS011;4270;48.148;11.648;2023-11-21T09:00:19;2.63;;;1.53;;
8466;SDS011;4270;48.148;11.648;2023-11-21T09:02:44;3.13;;;1.60;;
8466;SDS011;4270;48.148;11.648;2023-11-21T09:05:10;2.10;;;1.70;;
8466;SDS011;4270;48.148;11.648;2023-11-21T09:07:35;4.50;;;2.17;;
8466;SDS011;4270;48.148;11.648;2023-11-21T09:10:01;2.23;;;1.77;;
8466;SDS011;4270;48.148;11.648;2023-11-21T09:12:26;2.90;;;2.00;;
8466;SDS011;4270;48.148;11.648;2023-11-21T09:14:51;3.73;;;2.03;;
8466;SDS011;4270;48.148;11.648;2023-11-21T09:17:20;3.97;;;1.87;;
8466;SDS011;4270;48.148;11.648;2023-11-21T09:19:46;6.07;;;1.87;;
8466;SDS011;4270;48.148;11.648;2023-11-21T09:22:16;2.10;;;1.60;;
8466;SDS011;4270;48.148;11.648;2023-11-21T09:24:42;5.43;;;2.30;;
8466;SDS011;4270;48.148;11.648;2023-11-21T09:27:07;4.17;;;2.00;;
8466;SDS011;4270;48.148;11.648;2023-11-21T09:29:33;2.27;;;1.43;;
8466;SDS011;4270;48.148;11.648;2023-11-21T09:31:58;4.87;;;1.70;;
8466;SDS011;4270;48.148;11.648;2023-11-21T09:34:24;2.40;;;1.87;;
8466;SDS011;4270;48.148;11.648;2023-11-21T09:36:50;2.47;;;1.93;;
8466;SDS011;4270;48.148;11.648;2023-11-21T09:39:15;6.07;;;1.77;;
8466;SDS011;4270;48.148;11.648;2023-11-21T09:44:06;2.20;;;1.83;;
8466;SDS011;4270;48.148;11.648;2023-11-21T09:46:36;4.20;;;2.80;;
8466;SDS011;4270;48.148;11.648;2023-11-21T09:49:04;2.77;;;1.73;;
8466;SDS011;4270;48.148;11.648;2023-11-21T09:51:33;2.93;;;2.17;;
8466;SDS011;4270;48.148;11.648;2023-11-21T09:54:01;3.50;;;2.07;;
8466;SDS011;4270;48.148;11.648;2023-11-21T09:56:32;2.90;;;1.90;;
8466;SDS011;4270;48.148;11.648;2023-11-21T09:58:57;5.63;;;1.57;;
8466;SDS011;4270;48.148;11.648;2023-11-21T10:01:23;4.50;;;2.00;;
8466;SDS011;4270;48.148;11.648;2023-11-21T10:03:51;3.90;;;1.97;;
8466;SDS011;4270;48.148;11.648;2023-11-21T10:06:16;3.80;;;2.40;;
8466;SDS011;4270;48.148;11.648;2023-11-21T10:08:42;2.47;;;1.80;;
8466;SDS011;4270;48.148;11.648;2023-11-21T10:11:08;2.80;;;2.30;;
8466;SDS011;4270;48.148;11.648;2023-11-21T10:13:36;3.70;;;2.53;;
8466;SDS011;4270;48.148;11.648;2023-11-21T10:16:02;3.70;;;2.60;;
8466;SDS011;4270;48.148;11.648;2023-11-21T10:18:30;6.80;;;2.77;;
8466;SDS011;4270;48.148;11.648;2023-11-21T10:20:59;6.50;;;2.67;;
8466;SDS011;4270;48.148;11.648;2023-11-21T10:23:24;3.90;;;2.47;;
8466;SDS011;4270;48.148;11.648;2023-11-21T10:25:53;3.10;;;2.40;;
8466;SDS011;4270;48.148;11.648;2023-11-21T10:28:19;3.53;;;1.90;;
8466;SDS011;4270;48.148;11.648;2023-11-21T10:30:45;4.40;;;2.70;;
8466;SDS011;4270;48.148;11.648;2023-11-21T10:33:11;4.20;;;2.00;;
8466;SDS011;4270;48.148;11.648;2023-11-21T10:38:05;2.53;;;2.17;;
8466;SDS011;4270;48.148;11.648;2023-11-21T10:40:30;2.93;;;1.77;;
8466;SDS011;4270;48.148;11.648;2023-11-21T10:42:59;3.00;;;1.87;;
8466;SDS011;4270;48.148;11.648;2023-11-21T10:45:30;3.20;;;1.80;;
8466;SDS011;4270;48.148;11.648;2023-11-21T10:47:55;2.53;;;1.70;;
8466;SDS011;4270;48.148;11.648;2023-11-21T10:50:21;3.93;;;1.83;;
8466;SDS011;4270;48.148;11.648;2023-11-21T10:52:46;4.20;;;2.07;;
8466;SDS011;4270;48.148;11.648;2023-11-21T10:55:19;3.90;;;2.13;;
8466;SDS011;4270;48.148;11.648;2023-11-21T10:57:52;4.10;;;1.90;;
8466;SDS011;4270;48.148;11.648;2023-11-21T11:00:17;3.20;;;1.90;;
8466;SDS011;4270;48.148;11.648;2023-11-21T11:02:45;3.30;;;2.10;;
8466;SDS011;4270;48.148;11.648;2023-11-21T11:05:12;2.80;;;2.13;;
8466;SDS011;4270;48.148;11.648;2023-11-21T11:07:38;2.33;;;2.13;;
8466;SDS011;4270;48.148;11.648;2023-11-21T11:10:07;3.63;;;1.90;;
8466;SDS011;4270;48.148;11.648;2023-11-21T11:12:33;5.20;;;2.40;;
8466;SDS011;4270;48.148;11.648;2023-11-21T11:14:59;2.13;;;1.93;;
8466;SDS011;4270;48.148;11.648;2023-11-21T11:17:25;5.00;;;1.93;;
8466;SDS011;4270;48.148;11.648;2023-11-21T11:19:51;4.33;;;2.03;;
8466;SDS011;4270;48.148;11.648;2023-11-21T11:35:14;3.40;;;2.13;;
8466;SDS011;4270;48.148;11.648;2023-11-21T11:37:42;3.10;;;2.07;;
8466;SDS011;4270;48.148;11.648;2023-11-21T11:40:07;2.33;;;1.77;;
8466;SDS011;4270;48.148;11.648;2023-11-21T11:42:33;4.00;;;2.10;;
8466;SDS011;4270;48.148;11.648;2023-11-21T11:44:59;2.53;;;2.30;;
8466;SDS011;4270;48.148;11.648;2023-11-21T11:49:57;8.63;;;2.27;;
8466;SDS011;4270;48.148;11.648;2023-11-21T11:54:58;2.63;;;2.00;;
8466;SDS011;4270;48.148;11.648;2023-11-21T11:57:24;1.90;;;1.60;;
8466;SDS011;4270;48.148;11.648;2023-11-21T12:02:38;3.50;;;2.10;;
8466;SDS011;4270;48.148;11.648;2023-11-21T12:05:08;3.10;;;1.63;;
8466;SDS011;4270;48.148;11.648;2023-11-21T12:07:44;2.20;;;2.00;;
8466;SDS011;4270;48.148;11.648;2023-11-21T12:10:11;2.20;;;1.70;;
8466;SDS011;4270;48.148;11.648;2023-11-21T12:12:36;2.67;;;1.80;;
8466;SDS011;4270;48.148;11.648;2023-11-21T12:15:04;1.90;;;1.67;;
8466;SDS011;4270;48.148;11.648;2023-11-21T12:17:30;2.77;;;2.00;;
8466;SDS011;4270;48.148;11.648;2023-11-21T12:20:01;1.80;;;1.57;;
8466;SDS011;4270;48.148;11.648;2023-11-21T12:22:27;2.13;;;1.93;;
8466;SDS011;4270;48.148;11.648;2023-11-21T12:24:53;4.10;;;2.20;;
8466;SDS011;4270;48.148;11.648;2023-11-21T12:27:20;2.43;;;2.23;;
8466;SDS011;4270;48.148;11.648;2023-11-21T12:29:45;2.50;;;1.90;;
8466;SDS011;4270;48.148;11.648;2023-11-21T12:32:11;2.33;;;1.80;;
8466;SDS011;4270;48.148;11.648;2023-11-21T12:34:36;2.63;;;1.70;;
8466;SDS011;4270;48.148;11.648;2023-11-21T12:37:03;2.10;;;1.60;;
8466;SDS011;4270;48.148;11.648;2023-11-21T12:39:29;2.00;;;1.80;;
8466;SDS011;4270;48.148;11.648;2023-11-21T12:41:54;5.00;;;2.07;;
8466;SDS011;4270;48.148;11.648;2023-11-21T12:44:19;2.10;;;1.70;;
8466;SDS011;4270;48.148;11.648;2023-11-21T12:46:44;3.93;;;1.90;;
8466;SDS011;4270;48.148;11.648;2023-11-21T12:49:11;3.87;;;1.80;;
8466;SDS011;4270;48.148;11.648;2023-11-21T12:51:42;2.23;;;1.63;;
8466;SDS011;4270;48.148;11.648;2023-11-21T12:54:07;1.90;;;1.40;;
8466;SDS011;4270;48.148;11.648;2023-11-21T12:56:38;2.17;;;1.60;;
8466;SDS011;4270;48.148;11.648;2023-11-21T12:59:03;2.77;;;2.07;;
8466;SDS011;4270;48.148;11.648;2023-11-21T13:01:29;3.30;;;2.67;;
8466;SDS011;4270;48.148;11.648;2023-11-21T13:03:59;2.50;;;1.73;;
8466;SDS011;4270;48.148;11.648;2023-11-21T13:06:24;2.57;;;1.77;;
8466;SDS011;4270;48.148;11.648;2023-11-21T13:08:51;3.47;;;2.00;;
8466;SDS011;4270;48.148;11.648;2023-11-21T13:11:16;4.57;;;2.07;;
8466;SDS011;4270;48.148;11.648;2023-11-21T13:13:42;2.57;;;2.00;;
8466;SDS011;4270;48.148;11.648;2023-11-21T13:16:11;3.33;;;2.23;;
8466;SDS011;4270;48.148;11.648;2023-11-21T13:18:37;3.47;;;1.90;;
8466;SDS011;4270;48.148;11.648;2023-11-21T13:21:07;3.93;;;2.17;;
8466;SDS011;4270;48.148;11.648;2023-11-21T13:23:37;3.03;;;1.90;;
8466;SDS011;4270;48.148;11.648;2023-11-21T13:26:03;2.80;;;1.90;;
8466;SDS011;4270;48.148;11.648;2023-11-21T13:28:29;2.20;;;1.73;;
8466;SDS011;4270;48.148;11.648;2023-11-21T13:30:57;2.40;;;2.20;;
8466;SDS011;4270;48.148;11.648;2023-11-21T13:33:27;2.20;;;1.87;;
8466;SDS011;4270;48.148;11.648;2023-11-21T13:35:53;2.40;;;1.73;;
8466;SDS011;4270;48.148;11.648;2023-11-21T13:38:18;3.27;;;1.87;;
8466;SDS011;4270;48.148;11.648;2023-11-21T13:40:51;3.77;;;1.50;;
8466;SDS011;4270;48.148;11.648;2023-11-21T13:43:21;5.57;;;1.70;;
8466;SDS011;4270;48.148;11.648;2023-11-21T13:45:49;2.57;;;2.10;;
8466;SDS011;4270;48.148;11.648;2023-11-21T13:48:37;4.90;;;2.10;;
8466;SDS011;4270;48.148;11.648;2023-11-21T13:51:07;5.53;;;1.87;;
8466;SDS011;4270;48.148;11.648;2023-11-21T13:53:42;2.40;;;1.77;;
8466;SDS011;4270;48.148;11.648;2023-11-21T13:56:08;3.10;;;1.60;;
8466;SDS011;4270;48.148;11.648;2023-11-21T13:58:33;2.47;;;1.77;;
8466;SDS011;4270;48.148;11.648;2023-11-21T14:01:11;3.30;;;1.73;;
8466;SDS011;4270;48.148;11.648;2023-11-21T14:03:58;2.30;;;1.80;;
8466;SDS011;4270;48.148;11.648;2023-11-21T14:06:33;1.90;;;1.67;;
8466;SDS011;4270;48.148;11.648;2023-11-21T14:09:05;3.47;;;2.00;;
8466;SDS011;4270;48.148;11.648;2023-11-21T14:11:30;2.67;;;2.13;;
8466;SDS011;4270;48.148;11.648;2023-11-21T14:13:55;2.90;;;1.70;;
8466;SDS011;4270;48.148;11.648;2023-11-21T14:16:21;2.60;;;1.43;;
8466;SDS011;4270;48.148;11.648;2023-11-21T14:18:47;3.27;;;1.50;;
8466;SDS011;4270;48.148;11.648;2023-11-21T14:21:28;3.40;;;2.03;;
8466;SDS011;4270;48.148;11.648;2023-11-21T14:23:54;3.50;;;2.40;;
8466;SDS011;4270;48.148;11.648;2023-11-21T14:26:23;4.73;;;1.30;;
8466;SDS011;4270;48.148;11.648;2023-11-21T14:28:49;2.20;;;1.20;;
8466;SDS011;4270;48.148;11.648;2023-11-21T14:31:16;1.80;;;1.20;;
8466;SDS011;4270;48.148;11.648;2023-11-21T14:33:42;2.23;;;1.00;;
8466;SDS011;4270;48.148;11.648;2023-11-21T14:36:07;3.13;;;1.00;;
8466;SDS011;4270;48.148;11.648;2023-11-21T14:38:35;4.47;;;1.23;;
8466;SDS011;4270;48.148;11.648;2023-11-21T14:41:00;1.60;;;0.80;;
8466;SDS011;4270;48.148;11.648;2023-11-21T14:43:25;2.43;;;1.33;;
8466;SDS011;4270;48.148;11.648;2023-11-21T14:45:54;2.97;;;1.43;;
8466;SDS011;4270;48.148;11.648;2023-11-21T14:48:21;2.50;;;1.20;;
8466;SDS011;4270;48.148;11.648;2023-11-21T14:51:05;9.40;;;1.87;;
8466;SDS011;4270;48.148;11.648;2023-11-21T14:53:30;2.60;;;1.47;;
8466;SDS011;4270;48.148;11.648;2023-11-21T14:56:27;2.10;;;1.30;;
8466;SDS011;4270;48.148;11.648;2023-11-21T14:58:57;3.13;;;1.37;;
8466;SDS011;4270;48.148;11.648;2023-11-21T15:01:25;3.00;;;1.30;;
8466;SDS011;4270;48.148;11.648;2023-11-21T15:04:16;2.67;;;1.20;;
8466;SDS011;4270;48.148;11.648;2023-11-21T15:07:05;2.87;;;1.30;;
8466;SDS011;4270;48.148;11.648;2023-11-21T15:09:30;1.90;;;1.10;;
8466;SDS011;4270;48.148;11.648;2023-11-21T15:11:59;3.23;;;1.60;;
8466;SDS011;4270;48.148;11.648;2023-11-21T15:14:48;2.27;;;1.17;;
8466;SDS011;4270;48.148;11.648;2023-11-21T15:17:17;2.57;;;1.30;;
8466;SDS011;4270;48.148;11.648;2023-11-21T15:19:52;2.47;;;1.30;;
8466;SDS011;4270;48.148;11.648;2023-11-21T15:22:18;2.13;;;1.40;;